Flight Track Log - Related Links

Times and Time Zones

All times are in EDT time to prevent confusion due to time zone crossing. See the KAL1333 flight status page for this flight to view local times or setup timezone preferences in your user account.

Time Position Orientation Groundspeed Altitude Reporting Facility
EDT Latitude Longitude Course Direction KTS MPH feet Rate Location/Type
Thu 11:52:00 PM 37.4733 126.8173 166° South  Level Estimated
Thu 11:53:00 PM 37.3855 126.8448 166° South  Level Estimated
Thu 11:54:00 PM 37.2977 126.8723 166° South  Level Estimated
Thu 11:55:00 PM 37.2099 126.8997 166° South  Level Estimated
Thu 11:56:00 PM 37.1220 126.9270 166° South  Level Estimated
Thu 11:57:00 PM 37.0342 126.9543 166° South  Level Estimated
Thu 11:58:00 PM 36.9464 126.9815 166° South  Level Estimated
Thu 11:59:00 PM 36.8455 127.0126 166° South  Level Estimated
Fri 12:00:00 AM 36.7447 127.0437 166° South  Level Estimated
Fri 12:01:00 AM 36.6438 127.0747 166° South  Level Estimated
Fri 12:02:00 AM 36.5429 127.1056 166° South  Level Estimated
Fri 12:03:00 AM 36.4421 127.1364 166° South  Level Estimated
Fri 12:04:00 AM 36.3412 127.1672 166° South  Level Estimated
Fri 12:05:00 AM 36.2403 127.1978 166° South  Level Estimated
Fri 12:06:00 AM 36.1394 127.2284 166° South  Level Estimated
Fri 12:07:00 AM 36.0384 127.2589 166° South  Level Estimated
Fri 12:08:00 AM 35.9375 127.2894 166° South  Level Estimated
Fri 12:09:00 AM 35.8496 127.3158 166° South  Level Estimated
Fri 12:10:00 AM 35.7617 127.3422 166° South  Level Estimated
Fri 12:11:00 AM 35.6738 127.3685 166° South  Level Estimated
Fri 12:12:00 AM 35.5859 127.3948 166° South  Level Estimated
Fri 12:13:00 AM 35.4980 127.4210 166° South  Level Estimated
Fri 12:14:00 AM 35.4100 127.4472 166° South  Level Estimated
Fri 12:15:00 AM 35.3221 127.4733 166° South  Level Estimated
Fri 12:16:00 AM 35.2341 127.4993 166° South  Level Estimated
Fri 12:17:00 AM 35.1462 127.5253 166° South  Level Estimated
Fri 12:18:00 AM 35.0582 127.5512 166° South  Level Estimated
Fri 12:19:00 AM 34.9703 127.5771 166° South  Level Estimated
Fri 12:20:00 AM 34.8823 127.6029 166° South  Level Estimated
Fri 12:21:00 AM 34.8398 127.6153 166° South  Level Estimated
Fri 12:22:00 AM 34.8398 127.6153 North  Level Estimated
Fri 12:23:00 AM 34.8398 127.6153 North  Level Estimated
Fri 12:24:00 AM 34.8398 127.6153 North  Level Estimated
Fri 12:25:00 AM 34.8398 127.6153 North  Level Estimated
Fri 12:26:00 AM 34.8398 127.6153 North  Level Estimated
Fri 12:27:00 AM 34.8398 127.6153 North  Level Estimated
Fri 12:28:00 AM 34.8398 127.6153 North  Level Estimated
Fri 12:29:00 AM 34.8398 127.6153 North  Level Estimated

Login

Don't have an account? Register now (free) for customized features, flight alerts, and more!